sensor_id;sensor_type;location;lat;lon;timestamp;temperature;humidity
58951;DHT22;44730;53.158;6.398;2023-02-05T00:02:16;5.30;99.90
58951;DHT22;44730;53.158;6.398;2023-02-05T00:04:42;5.70;99.90
58951;DHT22;44730;53.158;6.398;2023-02-05T00:07:08;6.10;99.90
58951;DHT22;44730;53.158;6.398;2023-02-05T00:09:34;5.80;99.90
58951;DHT22;44730;53.158;6.398;2023-02-05T00:12:01;4.60;99.90
58951;DHT22;44730;53.158;6.398;2023-02-05T00:14:27;6.10;99.90
58951;DHT22;44730;53.158;6.398;2023-02-05T00:16:52;4.60;99.90
58951;DHT22;44730;53.158;6.398;2023-02-05T00:19:18;4.60;99.90
58951;DHT22;44730;53.158;6.398;2023-02-05T00:21:44;6.20;99.90
58951;DHT22;44730;53.158;6.398;2023-02-05T00:24:10;5.30;99.90
58951;DHT22;44730;53.158;6.398;2023-02-05T00:26:36;5.50;99.90
58951;DHT22;44730;53.158;6.398;2023-02-05T00:29:03;5.10;99.90
58951;DHT22;44730;53.158;6.398;2023-02-05T00:31:28;6.20;99.90
58951;DHT22;44730;53.158;6.398;2023-02-05T00:33:54;5.80;99.90
58951;DHT22;44730;53.158;6.398;2023-02-05T00:36:20;4.60;99.90
58951;DHT22;44730;53.158;6.398;2023-02-05T00:38:46;5.30;99.90
58951;DHT22;44730;53.158;6.398;2023-02-05T00:41:12;4.70;99.90
58951;DHT22;44730;53.158;6.398;2023-02-05T00:43:39;4.70;99.90
58951;DHT22;44730;53.158;6.398;2023-02-05T00:46:05;4.80;99.90
58951;DHT22;44730;53.158;6.398;2023-02-05T00:48:31;6.00;99.90
58951;DHT22;44730;53.158;6.398;2023-02-05T00:50:57;4.70;99.90
58951;DHT22;44730;53.158;6.398;2023-02-05T00:53:23;5.10;99.90
58951;DHT22;44730;53.158;6.398;2023-02-05T00:55:49;6.50;99.90
58951;DHT22;44730;53.158;6.398;2023-02-05T00:58:15;5.10;99.90
58951;DHT22;44730;53.158;6.398;2023-02-05T01:00:41;5.90;99.90
58951;DHT22;44730;53.158;6.398;2023-02-05T01:03:07;5.40;99.90
58951;DHT22;44730;53.158;6.398;2023-02-05T01:05:34;5.40;99.90
58951;DHT22;44730;53.158;6.398;2023-02-05T01:08:00;5.80;99.90
58951;DHT22;44730;53.158;6.398;2023-02-05T01:10:26;5.40;99.90
58951;DHT22;44730;53.158;6.398;2023-02-05T01:12:52;6.10;99.90
58951;DHT22;44730;53.158;6.398;2023-02-05T01:15:18;6.40;99.90
58951;DHT22;44730;53.158;6.398;2023-02-05T01:17:44;4.90;99.90
58951;DHT22;44730;53.158;6.398;2023-02-05T01:20:11;5.90;99.90
58951;DHT22;44730;53.158;6.398;2023-02-05T01:22:38;4.80;99.90
58951;DHT22;44730;53.158;6.398;2023-02-05T01:25:04;4.80;99.90
58951;DHT22;44730;53.158;6.398;2023-02-05T01:27:34;4.80;99.90
58951;DHT22;44730;53.158;6.398;2023-02-05T01:30:00;4.80;99.90
58951;DHT22;44730;53.158;6.398;2023-02-05T01:32:27;5.10;99.90
58951;DHT22;44730;53.158;6.398;2023-02-05T01:34:53;4.80;99.90
58951;DHT22;44730;53.158;6.398;2023-02-05T01:37:20;5.00;99.90
58951;DHT22;44730;53.158;6.398;2023-02-05T01:39:46;5.40;99.90
58951;DHT22;44730;53.158;6.398;2023-02-05T01:42:26;5.90;99.90
58951;DHT22;44730;53.158;6.398;2023-02-05T01:47:52;4.70;99.90
58951;DHT22;44730;53.158;6.398;2023-02-05T01:50:30;4.70;99.90
58951;DHT22;44730;53.158;6.398;2023-02-05T01:53:01;4.70;99.90
58951;DHT22;44730;53.158;6.398;2023-02-05T01:55:27;5.90;99.90
58951;DHT22;44730;53.158;6.398;2023-02-05T01:57:54;5.70;99.90
58951;DHT22;44730;53.158;6.398;2023-02-05T02:00:20;5.10;99.90
58951;DHT22;44730;53.158;6.398;2023-02-05T02:02:46;5.50;99.90
58951;DHT22;44730;53.158;6.398;2023-02-05T02:05:15;5.10;99.90
58951;DHT22;44730;53.158;6.398;2023-02-05T02:07:41;5.50;99.90
58951;DHT22;44730;53.158;6.398;2023-02-05T02:10:09;5.20;99.90
58951;DHT22;44730;53.158;6.398;2023-02-05T02:12:38;4.70;99.90
58951;DHT22;44730;53.158;6.398;2023-02-05T02:15:08;5.50;99.90
58951;DHT22;44730;53.158;6.398;2023-02-05T02:17:36;4.80;99.90
58951;DHT22;44730;53.158;6.398;2023-02-05T02:20:12;4.80;99.90
58951;DHT22;44730;53.158;6.398;2023-02-05T02:30:41;5.00;99.90
58951;DHT22;44730;53.158;6.398;2023-02-05T02:33:24;4.90;99.90
58951;DHT22;44730;53.158;6.398;2023-02-05T02:35:59;4.90;99.90
58951;DHT22;44730;53.158;6.398;2023-02-05T02:41:04;5.00;99.90
58951;DHT22;44730;53.158;6.398;2023-02-05T02:44:04;5.00;99.90
58951;DHT22;44730;53.158;6.398;2023-02-05T02:46:45;5.00;99.90
58951;DHT22;44730;53.158;6.398;2023-02-05T02:49:16;5.00;99.90
58951;DHT22;44730;53.158;6.398;2023-02-05T02:51:44;6.10;99.90
58951;DHT22;44730;53.158;6.398;2023-02-05T02:54:13;5.70;99.90
58951;DHT22;44730;53.158;6.398;2023-02-05T02:56:40;6.60;99.90
58951;DHT22;44730;53.158;6.398;2023-02-05T02:59:13;6.80;99.90
58951;DHT22;44730;53.158;6.398;2023-02-05T03:01:42;5.10;99.90
58951;DHT22;44730;53.158;6.398;2023-02-05T03:04:32;5.70;99.90
58951;DHT22;44730;53.158;6.398;2023-02-05T03:07:15;6.40;99.90
58951;DHT22;44730;53.158;6.398;2023-02-05T03:12:16;5.20;99.90
58951;DHT22;44730;53.158;6.398;2023-02-05T03:14:42;5.20;99.90
58951;DHT22;44730;53.158;6.398;2023-02-05T03:17:08;5.20;99.90
58951;DHT22;44730;53.158;6.398;2023-02-05T03:19:34;5.20;99.90
58951;DHT22;44730;53.158;6.398;2023-02-05T03:22:04;5.20;99.90
58951;DHT22;44730;53.158;6.398;2023-02-05T03:24:31;5.50;99.90
58951;DHT22;44730;53.158;6.398;2023-02-05T03:26:57;5.30;99.90
58951;DHT22;44730;53.158;6.398;2023-02-05T03:29:35;6.70;99.90
58951;DHT22;44730;53.158;6.398;2023-02-05T03:37:55;5.30;99.90
58951;DHT22;44730;53.158;6.398;2023-02-05T03:43:11;5.40;99.90
58951;DHT22;44730;53.158;6.398;2023-02-05T03:45:46;5.40;99.90
58951;DHT22;44730;53.158;6.398;2023-02-05T03:59:25;5.50;99.90
58951;DHT22;44730;53.158;6.398;2023-02-05T04:01:52;5.50;99.90
58951;DHT22;44730;53.158;6.398;2023-02-05T04:04:18;6.80;99.90
58951;DHT22;44730;53.158;6.398;2023-02-05T04:06:46;6.30;99.90
58951;DHT22;44730;53.158;6.398;2023-02-05T04:09:12;6.80;99.90
58951;DHT22;44730;53.158;6.398;2023-02-05T04:11:38;5.60;99.90
58951;DHT22;44730;53.158;6.398;2023-02-05T04:14:03;5.60;99.90
58951;DHT22;44730;53.158;6.398;2023-02-05T04:16:29;5.60;99.90
58951;DHT22;44730;53.158;6.398;2023-02-05T04:18:55;5.70;99.90
58951;DHT22;44730;53.158;6.398;2023-02-05T04:21:21;5.70;99.90
58951;DHT22;44730;53.158;6.398;2023-02-05T04:23:46;5.70;99.90
58951;DHT22;44730;53.158;6.398;2023-02-05T04:26:12;6.50;99.90
58951;DHT22;44730;53.158;6.398;2023-02-05T04:28:38;5.70;99.90
58951;DHT22;44730;53.158;6.398;2023-02-05T04:31:08;6.90;99.90
58951;DHT22;44730;53.158;6.398;2023-02-05T04:33:34;5.80;99.90
58951;DHT22;44730;53.158;6.398;2023-02-05T04:36:00;6.50;99.90
58951;DHT22;44730;53.158;6.398;2023-02-05T04:38:26;6.50;99.90
58951;DHT22;44730;53.158;6.398;2023-02-05T04:40:52;6.90;99.90
58951;DHT22;44730;53.158;6.398;2023-02-05T04:43:18;5.90;99.90
58951;DHT22;44730;53.158;6.398;2023-02-05T04:45:44;6.00;99.90
58951;DHT22;44730;53.158;6.398;2023-02-05T04:48:09;7.00;99.90
58951;DHT22;44730;53.158;6.398;2023-02-05T04:50:37;6.40;99.90
58951;DHT22;44730;53.158;6.398;2023-02-05T04:53:03;6.10;99.90
58951;DHT22;44730;53.158;6.398;2023-02-05T04:55:30;7.00;99.90
58951;DHT22;44730;53.158;6.398;2023-02-05T04:57:56;6.30;99.90
58951;DHT22;44730;53.158;6.398;2023-02-05T05:00:23;6.70;99.90
58951;DHT22;44730;53.158;6.398;2023-02-05T05:02:49;7.10;99.90
58951;DHT22;44730;53.158;6.398;2023-02-05T05:05:15;6.20;99.90
58951;DHT22;44730;53.158;6.398;2023-02-05T05:07:40;6.20;99.90
58951;DHT22;44730;53.158;6.398;2023-02-05T05:10:10;7.00;99.90
58951;DHT22;44730;53.158;6.398;2023-02-05T05:12:37;6.20;99.90
58951;DHT22;44730;53.158;6.398;2023-02-05T05:15:04;7.40;99.90
58951;DHT22;44730;53.158;6.398;2023-02-05T05:17:30;6.20;99.90
58951;DHT22;44730;53.158;6.398;2023-02-05T05:19:55;7.70;99.90
58951;DHT22;44730;53.158;6.398;2023-02-05T05:22:21;7.10;99.90
58951;DHT22;44730;53.158;6.398;2023-02-05T05:24:47;6.20;99.90
58951;DHT22;44730;53.158;6.398;2023-02-05T05:27:13;6.30;99.90
58951;DHT22;44730;53.158;6.398;2023-02-05T05:29:39;6.30;99.90
58951;DHT22;44730;53.158;6.398;2023-02-05T05:32:04;6.20;99.90
58951;DHT22;44730;53.158;6.398;2023-02-05T05:34:30;6.20;99.90
58951;DHT22;44730;53.158;6.398;2023-02-05T05:36:56;6.90;99.90
58951;DHT22;44730;53.158;6.398;2023-02-05T05:39:21;7.50;99.90
58951;DHT22;44730;53.158;6.398;2023-02-05T05:42:06;6.20;99.90
58951;DHT22;44730;53.158;6.398;2023-02-05T05:44:50;6.10;99.90
58951;DHT22;44730;53.158;6.398;2023-02-05T05:47:19;6.10;99.90
58951;DHT22;44730;53.158;6.398;2023-02-05T05:49:45;6.00;99.90
58951;DHT22;44730;53.158;6.398;2023-02-05T05:52:14;5.90;99.90
58951;DHT22;44730;53.158;6.398;2023-02-05T05:54:40;5.80;99.90
58951;DHT22;44730;53.158;6.398;2023-02-05T05:57:06;7.60;99.90
58951;DHT22;44730;53.158;6.398;2023-02-05T05:59:32;5.70;99.90
58951;DHT22;44730;53.158;6.398;2023-02-05T06:02:00;5.70;99.90
58951;DHT22;44730;53.158;6.398;2023-02-05T06:04:28;5.70;99.90
58951;DHT22;44730;53.158;6.398;2023-02-05T06:06:54;5.80;99.90
58951;DHT22;44730;53.158;6.398;2023-02-05T06:09:20;6.50;99.90
58951;DHT22;44730;53.158;6.398;2023-02-05T06:11:49;5.70;99.90
58951;DHT22;44730;53.158;6.398;2023-02-05T06:14:15;6.20;99.90
58951;DHT22;44730;53.158;6.398;2023-02-05T06:16:40;5.70;99.90
58951;DHT22;44730;53.158;6.398;2023-02-05T06:19:06;6.70;99.90
58951;DHT22;44730;53.158;6.398;2023-02-05T06:21:32;5.60;99.90
58951;DHT22;44730;53.158;6.398;2023-02-05T06:23:58;5.60;99.90
58951;DHT22;44730;53.158;6.398;2023-02-05T06:26:24;5.60;99.90
58951;DHT22;44730;53.158;6.398;2023-02-05T06:28:50;6.20;99.90
58951;DHT22;44730;53.158;6.398;2023-02-05T06:31:17;7.10;99.90
58951;DHT22;44730;53.158;6.398;2023-02-05T06:33:43;6.70;99.90
58951;DHT22;44730;53.158;6.398;2023-02-05T06:36:09;6.70;99.90
58951;DHT22;44730;53.158;6.398;2023-02-05T06:38:35;7.40;99.90
58951;DHT22;44730;53.158;6.398;2023-02-05T06:41:01;5.60;99.90
58951;DHT22;44730;53.158;6.398;2023-02-05T06:43:27;7.00;99.90
58951;DHT22;44730;53.158;6.398;2023-02-05T06:48:27;5.70;99.90
58951;DHT22;44730;53.158;6.398;2023-02-05T06:50:53;7.30;99.90
58951;DHT22;44730;53.158;6.398;2023-02-05T06:53:19;5.80;99.90
58951;DHT22;44730;53.158;6.398;2023-02-05T06:55:51;6.40;99.90
58951;DHT22;44730;53.158;6.398;2023-02-05T06:58:39;7.10;99.90
58951;DHT22;44730;53.158;6.398;2023-02-05T07:01:08;6.10;99.90
58951;DHT22;44730;53.158;6.398;2023-02-05T07:03:46;5.70;99.90
58951;DHT22;44730;53.158;6.398;2023-02-05T07:06:13;4.50;99.90
58951;DHT22;44730;53.158;6.398;2023-02-05T07:08:38;7.40;99.90
58951;DHT22;44730;53.158;6.398;2023-02-05T07:11:13;5.70;99.90
58951;DHT22;44730;53.158;6.398;2023-02-05T07:13:44;5.90;99.90
58951;DHT22;44730;53.158;6.398;2023-02-05T07:18:36;5.80;99.90
58951;DHT22;44730;53.158;6.398;2023-02-05T07:21:15;5.70;99.90
58951;DHT22;44730;53.158;6.398;2023-02-05T07:23:41;5.80;99.90
58951;DHT22;44730;53.158;6.398;2023-02-05T07:26:09;5.90;99.90
58951;DHT22;44730;53.158;6.398;2023-02-05T07:28:38;5.80;99.90
58951;DHT22;44730;53.158;6.398;2023-02-05T07:31:05;5.00;99.90
58951;DHT22;44730;53.158;6.398;2023-02-05T07:33:39;6.60;99.90
58951;DHT22;44730;53.158;6.398;2023-02-05T07:36:06;5.90;99.90
58951;DHT22;44730;53.158;6.398;2023-02-05T07:38:33;6.00;99.90
58951;DHT22;44730;53.158;6.398;2023-02-05T07:41:41;7.00;99.90
58951;DHT22;44730;53.158;6.398;2023-02-05T07:44:07;6.20;99.90
58951;DHT22;44730;53.158;6.398;2023-02-05T07:46:32;6.90;99.90
58951;DHT22;44730;53.158;6.398;2023-02-05T07:49:06;6.10;99.90
58951;DHT22;44730;53.158;6.398;2023-02-05T07:51:35;6.00;99.90
58951;DHT22;44730;53.158;6.398;2023-02-05T07:54:21;7.00;99.90
58951;DHT22;44730;53.158;6.398;2023-02-05T07:56:49;6.30;99.90
58951;DHT22;44730;53.158;6.398;2023-02-05T07:59:15;6.50;99.90
58951;DHT22;44730;53.158;6.398;2023-02-05T08:01:40;7.40;99.90
58951;DHT22;44730;53.158;6.398;2023-02-05T08:04:09;6.40;99.90
58951;DHT22;44730;53.158;6.398;2023-02-05T08:06:37;6.60;99.90
58951;DHT22;44730;53.158;6.398;2023-02-05T08:09:03;6.40;99.90
58951;DHT22;44730;53.158;6.398;2023-02-05T08:11:29;6.20;99.90
58951;DHT22;44730;53.158;6.398;2023-02-05T08:13:59;6.40;99.90
58951;DHT22;44730;53.158;6.398;2023-02-05T08:16:25;6.60;99.90
58951;DHT22;44730;53.158;6.398;2023-02-05T08:18:51;6.10;99.90
58951;DHT22;44730;53.158;6.398;2023-02-05T08:21:17;6.30;99.90
58951;DHT22;44730;53.158;6.398;2023-02-05T08:23:53;6.10;99.90
58951;DHT22;44730;53.158;6.398;2023-02-05T08:26:33;5.30;99.90
58951;DHT22;44730;53.158;6.398;2023-02-05T08:32:10;6.20;99.90
58951;DHT22;44730;53.158;6.398;2023-02-05T08:34:59;6.20;99.90
58951;DHT22;44730;53.158;6.398;2023-02-05T08:37:30;6.00;99.90
58951;DHT22;44730;53.158;6.398;2023-02-05T08:40:01;6.80;99.90
58951;DHT22;44730;53.158;6.398;2023-02-05T08:42:32;6.10;99.90
58951;DHT22;44730;53.158;6.398;2023-02-05T08:44:58;6.50;99.90
58951;DHT22;44730;53.158;6.398;2023-02-05T08:47:24;6.30;99.90
58951;DHT22;44730;53.158;6.398;2023-02-05T08:49:50;6.40;99.90
58951;DHT22;44730;53.158;6.398;2023-02-05T08:52:18;6.40;99.90
58951;DHT22;44730;53.158;6.398;2023-02-05T08:54:47;6.50;99.90
58951;DHT22;44730;53.158;6.398;2023-02-05T08:57:26;6.60;99.90
58951;DHT22;44730;53.158;6.398;2023-02-05T08:59:58;6.50;99.90
58951;DHT22;44730;53.158;6.398;2023-02-05T09:02:27;6.60;99.90
58951;DHT22;44730;53.158;6.398;2023-02-05T09:04:52;6.60;99.90
58951;DHT22;44730;53.158;6.398;2023-02-05T09:07:20;6.80;99.90
58951;DHT22;44730;53.158;6.398;2023-02-05T09:09:46;7.40;99.90
58951;DHT22;44730;53.158;6.398;2023-02-05T09:12:12;6.70;99.90
58951;DHT22;44730;53.158;6.398;2023-02-05T09:14:39;6.80;99.90
58951;DHT22;44730;53.158;6.398;2023-02-05T09:17:06;6.80;99.90
58951;DHT22;44730;53.158;6.398;2023-02-05T09:19:34;6.80;99.90
58951;DHT22;44730;53.158;6.398;2023-02-05T09:22:03;7.30;99.90
58951;DHT22;44730;53.158;6.398;2023-02-05T09:24:36;6.90;99.90
58951;DHT22;44730;53.158;6.398;2023-02-05T09:27:02;6.90;99.90
58951;DHT22;44730;53.158;6.398;2023-02-05T09:29:29;7.10;99.90
58951;DHT22;44730;53.158;6.398;2023-02-05T09:31:55;7.00;99.90
58951;DHT22;44730;53.158;6.398;2023-02-05T09:34:25;7.00;99.90
58951;DHT22;44730;53.158;6.398;2023-02-05T09:36:51;7.20;99.90
58951;DHT22;44730;53.158;6.398;2023-02-05T09:39:20;7.20;99.90
58951;DHT22;44730;53.158;6.398;2023-02-05T09:42:12;7.00;99.90
58951;DHT22;44730;53.158;6.398;2023-02-05T09:47:43;6.90;99.90
58951;DHT22;44730;53.158;6.398;2023-02-05T09:50:26;5.90;99.90
58951;DHT22;44730;53.158;6.398;2023-02-05T09:53:01;6.90;99.90
58951;DHT22;44730;53.158;6.398;2023-02-05T09:55:45;7.10;99.90
58951;DHT22;44730;53.158;6.398;2023-02-05T09:58:26;7.30;99.90
58951;DHT22;44730;53.158;6.398;2023-02-05T10:01:08;7.50;99.90
58951;DHT22;44730;53.158;6.398;2023-02-05T10:03:43;8.20;99.90
58951;DHT22;44730;53.158;6.398;2023-02-05T10:09:37;7.80;99.90
58951;DHT22;44730;53.158;6.398;2023-02-05T10:17:45;7.70;99.90
58951;DHT22;44730;53.158;6.398;2023-02-05T10:23:15;8.00;99.90
58951;DHT22;44730;53.158;6.398;2023-02-05T10:26:03;7.70;99.90
58951;DHT22;44730;53.158;6.398;2023-02-05T10:37:11;7.20;99.90
58951;DHT22;44730;53.158;6.398;2023-02-05T10:39:58;7.20;99.90
58951;DHT22;44730;53.158;6.398;2023-02-05T10:42:34;7.40;99.90
58951;DHT22;44730;53.158;6.398;2023-02-05T10:45:12;7.50;99.90
58951;DHT22;44730;53.158;6.398;2023-02-05T10:53:17;7.70;99.90
58951;DHT22;44730;53.158;6.398;2023-02-05T10:55:43;7.80;99.90
58951;DHT22;44730;53.158;6.398;2023-02-05T10:58:26;7.70;99.90
58951;DHT22;44730;53.158;6.398;2023-02-05T11:01:17;7.90;99.90
58951;DHT22;44730;53.158;6.398;2023-02-05T11:04:09;7.90;99.90
58951;DHT22;44730;53.158;6.398;2023-02-05T11:06:41;8.20;99.90
58951;DHT22;44730;53.158;6.398;2023-02-05T11:11:53;7.90;99.90
58951;DHT22;44730;53.158;6.398;2023-02-05T11:14:26;7.80;99.90
58951;DHT22;44730;53.158;6.398;2023-02-05T11:16:56;7.70;99.90
58951;DHT22;44730;53.158;6.398;2023-02-05T11:19:27;7.90;99.90
58951;DHT22;44730;53.158;6.398;2023-02-05T11:21:55;6.30;99.90
58951;DHT22;44730;53.158;6.398;2023-02-05T11:29:39;8.00;99.90
58951;DHT22;44730;53.158;6.398;2023-02-05T11:32:17;8.10;99.90
58951;DHT22;44730;53.158;6.398;2023-02-05T11:34:44;8.10;99.90
58951;DHT22;44730;53.158;6.398;2023-02-05T11:37:15;8.20;99.90
58951;DHT22;44730;53.158;6.398;2023-02-05T11:39:41;8.30;99.90
58951;DHT22;44730;53.158;6.398;2023-02-05T11:42:19;8.50;99.90
58951;DHT22;44730;53.158;6.398;2023-02-05T11:44:56;8.30;99.90
58951;DHT22;44730;53.158;6.398;2023-02-05T11:49:51;8.30;99.90
58951;DHT22;44730;53.158;6.398;2023-02-05T11:52:26;8.30;99.90
58951;DHT22;44730;53.158;6.398;2023-02-05T11:54:54;8.30;99.90
58951;DHT22;44730;53.158;6.398;2023-02-05T11:59:55;8.30;99.90
58951;DHT22;44730;53.158;6.398;2023-02-05T12:02:30;8.30;99.90
58951;DHT22;44730;53.158;6.398;2023-02-05T12:07:44;8.40;99.90
58951;DHT22;44730;53.158;6.398;2023-02-05T12:13:24;8.50;99.90
58951;DHT22;44730;53.158;6.398;2023-02-05T12:18:40;8.50;99.90
58951;DHT22;44730;53.158;6.398;2023-02-05T12:24:15;8.70;99.90
58951;DHT22;44730;53.158;6.398;2023-02-05T12:26:50;8.60;99.90
58951;DHT22;44730;53.158;6.398;2023-02-05T12:36:05;8.60;99.90
58951;DHT22;44730;53.158;6.398;2023-02-05T12:38:42;8.60;99.90
58951;DHT22;44730;53.158;6.398;2023-02-05T12:41:42;8.60;99.90
58951;DHT22;44730;53.158;6.398;2023-02-05T12:44:32;8.60;99.90
58951;DHT22;44730;53.158;6.398;2023-02-05T12:50:15;8.60;99.90
58951;DHT22;44730;53.158;6.398;2023-02-05T12:53:09;8.70;99.90
58951;DHT22;44730;53.158;6.398;2023-02-05T12:58:18;8.90;99.90
58951;DHT22;44730;53.158;6.398;2023-02-05T13:00:54;8.90;99.90
58951;DHT22;44730;53.158;6.398;2023-02-05T13:06:07;8.90;99.90
58951;DHT22;44730;53.158;6.398;2023-02-05T13:08:41;8.90;99.90
58951;DHT22;44730;53.158;6.398;2023-02-05T13:11:17;8.90;99.90
58951;DHT22;44730;53.158;6.398;2023-02-05T13:16:25;8.80;99.90
58951;DHT22;44730;53.158;6.398;2023-02-05T13:19:02;8.70;99.90
58951;DHT22;44730;53.158;6.398;2023-02-05T13:21:32;8.10;99.90
58951;DHT22;44730;53.158;6.398;2023-02-05T13:24:44;8.70;99.90
58951;DHT22;44730;53.158;6.398;2023-02-05T13:27:37;8.70;99.90
58951;DHT22;44730;53.158;6.398;2023-02-05T13:30:42;8.60;99.90
58951;DHT22;44730;53.158;6.398;2023-02-05T13:33:10;8.60;99.90
58951;DHT22;44730;53.158;6.398;2023-02-05T13:35:44;9.40;99.90
58951;DHT22;44730;53.158;6.398;2023-02-05T13:44:29;8.50;99.90
58951;DHT22;44730;53.158;6.398;2023-02-05T13:58:09;8.30;99.90
58951;DHT22;44730;53.158;6.398;2023-02-05T14:00:49;8.50;99.90
58951;DHT22;44730;53.158;6.398;2023-02-05T14:03:37;8.30;99.90
58951;DHT22;44730;53.158;6.398;2023-02-05T14:06:13;8.30;99.90
58951;DHT22;44730;53.158;6.398;2023-02-05T14:08:42;8.30;99.90
58951;DHT22;44730;53.158;6.398;2023-02-05T14:11:11;8.30;99.90
58951;DHT22;44730;53.158;6.398;2023-02-05T14:13:42;8.20;99.90
58951;DHT22;44730;53.158;6.398;2023-02-05T14:29:51;8.00;99.90
58951;DHT22;44730;53.158;6.398;2023-02-05T14:37:36;7.90;99.90
58951;DHT22;44730;53.158;6.398;2023-02-05T14:40:20;7.90;99.90
58951;DHT22;44730;53.158;6.398;2023-02-05T14:43:13;7.90;99.90
58951;DHT22;44730;53.158;6.398;2023-02-05T14:45:50;7.80;99.90
58951;DHT22;44730;53.158;6.398;2023-02-05T14:48:28;7.90;99.90
58951;DHT22;44730;53.158;6.398;2023-02-05T14:53:52;7.90;99.90
58951;DHT22;44730;53.158;6.398;2023-02-05T14:59:03;7.80;99.90
58951;DHT22;44730;53.158;6.398;2023-02-05T15:04:02;7.70;99.90
58951;DHT22;44730;53.158;6.398;2023-02-05T15:06:33;7.60;99.90
58951;DHT22;44730;53.158;6.398;2023-02-05T15:09:16;7.60;99.90
58951;DHT22;44730;53.158;6.398;2023-02-05T15:14:24;8.20;99.90
58951;DHT22;44730;53.158;6.398;2023-02-05T15:19:50;7.60;99.90
58951;DHT22;44730;53.158;6.398;2023-02-05T15:22:39;7.60;99.90
58951;DHT22;44730;53.158;6.398;2023-02-05T15:27:50;7.50;99.90
58951;DHT22;44730;53.158;6.398;2023-02-05T15:30:25;7.70;99.90
58951;DHT22;44730;53.158;6.398;2023-02-05T15:33:12;8.70;99.90
58951;DHT22;44730;53.158;6.398;2023-02-05T15:35:42;7.30;99.90
58951;DHT22;44730;53.158;6.398;2023-02-05T15:40:41;7.20;99.90
58951;DHT22;44730;53.158;6.398;2023-02-05T15:43:19;6.20;99.90
58951;DHT22;44730;53.158;6.398;2023-02-05T15:45:45;7.80;99.90
58951;DHT22;44730;53.158;6.398;2023-02-05T15:48:13;6.40;99.90
58951;DHT22;44730;53.158;6.398;2023-02-05T15:53:22;6.90;99.90
58951;DHT22;44730;53.158;6.398;2023-02-05T15:55:51;6.80;99.90
58951;DHT22;44730;53.158;6.398;2023-02-05T15:58:20;6.70;99.90
58951;DHT22;44730;53.158;6.398;2023-02-05T16:00:50;5.50;99.90
58951;DHT22;44730;53.158;6.398;2023-02-05T16:03:32;6.60;99.90
58951;DHT22;44730;53.158;6.398;2023-02-05T16:06:14;6.50;99.90
58951;DHT22;44730;53.158;6.398;2023-02-05T16:08:47;6.60;99.90
58951;DHT22;44730;53.158;6.398;2023-02-05T16:11:27;6.40;99.90
58951;DHT22;44730;53.158;6.398;2023-02-05T16:14:04;6.30;99.90
58951;DHT22;44730;53.158;6.398;2023-02-05T16:16:31;6.70;99.90
58951;DHT22;44730;53.158;6.398;2023-02-05T16:19:00;6.90;99.90
58951;DHT22;44730;53.158;6.398;2023-02-05T16:21:32;6.20;99.90
58951;DHT22;44730;53.158;6.398;2023-02-05T16:24:06;6.00;99.90
58951;DHT22;44730;53.158;6.398;2023-02-05T16:27:14;6.00;99.90
58951;DHT22;44730;53.158;6.398;2023-02-05T16:29:37;6.00;99.90
58951;DHT22;44730;53.158;6.398;2023-02-05T16:32:09;5.90;99.90
58951;DHT22;44730;53.158;6.398;2023-02-05T16:34:38;5.80;99.90
58951;DHT22;44730;53.158;6.398;2023-02-05T16:37:06;5.80;99.90
58951;DHT22;44730;53.158;6.398;2023-02-05T16:39:41;5.70;99.90
58951;DHT22;44730;53.158;6.398;2023-02-05T16:42:29;5.70;99.90
58951;DHT22;44730;53.158;6.398;2023-02-05T16:45:19;5.60;99.90
58951;DHT22;44730;53.158;6.398;2023-02-05T16:48:19;5.60;99.90
58951;DHT22;44730;53.158;6.398;2023-02-05T16:50:51;5.60;99.90
58951;DHT22;44730;53.158;6.398;2023-02-05T16:53:23;5.50;99.90
58951;DHT22;44730;53.158;6.398;2023-02-05T16:55:53;5.50;99.90
58951;DHT22;44730;53.158;6.398;2023-02-05T16:58:24;5.60;99.90
58951;DHT22;44730;53.158;6.398;2023-02-05T17:00:54;5.40;99.90
58951;DHT22;44730;53.158;6.398;2023-02-05T17:03:20;5.40;99.90
58951;DHT22;44730;53.158;6.398;2023-02-05T17:05:53;5.40;99.90
58951;DHT22;44730;53.158;6.398;2023-02-05T17:08:29;5.30;99.90
58951;DHT22;44730;53.158;6.398;2023-02-05T17:10:58;5.30;99.90
58951;DHT22;44730;53.158;6.398;2023-02-05T17:13:28;5.30;99.90
58951;DHT22;44730;53.158;6.398;2023-02-05T17:15:54;5.50;99.90
58951;DHT22;44730;53.158;6.398;2023-02-05T17:18:30;6.50;99.90
58951;DHT22;44730;53.158;6.398;2023-02-05T17:21:20;5.20;99.90
58951;DHT22;44730;53.158;6.398;2023-02-05T17:23:48;5.10;99.90
58951;DHT22;44730;53.158;6.398;2023-02-05T17:26:14;5.10;99.90
58951;DHT22;44730;53.158;6.398;2023-02-05T17:28:42;5.00;99.90
58951;DHT22;44730;53.158;6.398;2023-02-05T17:31:11;5.00;99.90
58951;DHT22;44730;53.158;6.398;2023-02-05T17:33:38;4.90;99.90
58951;DHT22;44730;53.158;6.398;2023-02-05T17:36:04;4.90;99.90
58951;DHT22;44730;53.158;6.398;2023-02-05T17:38:30;4.80;99.90
58951;DHT22;44730;53.158;6.398;2023-02-05T17:40:56;5.80;99.90
58951;DHT22;44730;53.158;6.398;2023-02-05T17:43:40;4.80;99.90
58951;DHT22;44730;53.158;6.398;2023-02-05T17:46:12;4.90;99.90
58951;DHT22;44730;53.158;6.398;2023-02-05T17:48:39;5.90;99.90
58951;DHT22;44730;53.158;6.398;2023-02-05T17:51:04;4.80;99.90
58951;DHT22;44730;53.158;6.398;2023-02-05T17:53:30;4.70;99.90
58951;DHT22;44730;53.158;6.398;2023-02-05T17:55:56;4.70;99.90
58951;DHT22;44730;53.158;6.398;2023-02-05T17:58:22;5.20;99.90
58951;DHT22;44730;53.158;6.398;2023-02-05T18:00:50;4.60;99.90
58951;DHT22;44730;53.158;6.398;2023-02-05T18:03:16;4.60;99.90
58951;DHT22;44730;53.158;6.398;2023-02-05T18:05:41;4.50;99.90
58951;DHT22;44730;53.158;6.398;2023-02-05T18:08:10;4.50;99.90
58951;DHT22;44730;53.158;6.398;2023-02-05T18:10:36;4.50;99.90
58951;DHT22;44730;53.158;6.398;2023-02-05T18:13:01;4.50;99.90
58951;DHT22;44730;53.158;6.398;2023-02-05T18:15:29;5.60;99.90
58951;DHT22;44730;53.158;6.398;2023-02-05T18:17:56;5.80;99.90
58951;DHT22;44730;53.158;6.398;2023-02-05T18:20:24;4.30;99.90
58951;DHT22;44730;53.158;6.398;2023-02-05T18:22:50;5.30;99.90
58951;DHT22;44730;53.158;6.398;2023-02-05T18:25:16;4.20;99.90
58951;DHT22;44730;53.158;6.398;2023-02-05T18:27:42;4.10;99.90
58951;DHT22;44730;53.158;6.398;2023-02-05T18:30:08;4.40;99.90
58951;DHT22;44730;53.158;6.398;2023-02-05T18:32:34;4.10;99.90
58951;DHT22;44730;53.158;6.398;2023-02-05T18:35:00;4.10;99.90
58951;DHT22;44730;53.158;6.398;2023-02-05T18:37:25;4.20;99.90
58951;DHT22;44730;53.158;6.398;2023-02-05T18:39:51;6.10;99.90
58951;DHT22;44730;53.158;6.398;2023-02-05T18:42:17;2.70;99.90
58951;DHT22;44730;53.158;6.398;2023-02-05T18:44:43;4.10;99.90
58951;DHT22;44730;53.158;6.398;2023-02-05T18:47:09;4.30;99.90
58951;DHT22;44730;53.158;6.398;2023-02-05T18:49:35;5.60;99.90
58951;DHT22;44730;53.158;6.398;2023-02-05T18:52:03;5.30;99.90
58951;DHT22;44730;53.158;6.398;2023-02-05T18:54:30;4.30;99.90
58951;DHT22;44730;53.158;6.398;2023-02-05T18:56:55;4.30;99.90
58951;DHT22;44730;53.158;6.398;2023-02-05T18:59:21;5.80;99.90
58951;DHT22;44730;53.158;6.398;2023-02-05T19:01:49;5.50;99.90